sensor_id;sensor_type;location;lat;lon;timestamp;temperature;humidity
75321;DHT22;68337;52.196;5.660;2023-06-24T00:01:28;16.80;99.90
75321;DHT22;68337;52.196;5.660;2023-06-24T00:03:54;16.80;99.90
75321;DHT22;68337;52.196;5.660;2023-06-24T00:06:20;16.80;99.90
75321;DHT22;68337;52.196;5.660;2023-06-24T00:08:48;16.80;99.90
75321;DHT22;68337;52.196;5.660;2023-06-24T00:11:14;16.80;99.90
75321;DHT22;68337;52.196;5.660;2023-06-24T00:13:41;16.70;99.90
75321;DHT22;68337;52.196;5.660;2023-06-24T00:16:08;16.70;99.90
75321;DHT22;68337;52.196;5.660;2023-06-24T00:18:34;16.70;99.90
75321;DHT22;68337;52.196;5.660;2023-06-24T00:21:01;16.80;99.90
75321;DHT22;68337;52.196;5.660;2023-06-24T00:23:28;16.70;99.90
75321;DHT22;68337;52.196;5.660;2023-06-24T00:25:54;16.80;99.90
75321;DHT22;68337;52.196;5.660;2023-06-24T00:28:21;16.80;99.90
75321;DHT22;68337;52.196;5.660;2023-06-24T00:30:47;16.80;99.90
75321;DHT22;68337;52.196;5.660;2023-06-24T00:33:13;16.90;99.90
75321;DHT22;68337;52.196;5.660;2023-06-24T00:35:40;16.90;99.90
75321;DHT22;68337;52.196;5.660;2023-06-24T00:38:06;16.90;99.90
75321;DHT22;68337;52.196;5.660;2023-06-24T00:40:32;16.90;99.90
75321;DHT22;68337;52.196;5.660;2023-06-24T00:42:58;16.80;99.90
75321;DHT22;68337;52.196;5.660;2023-06-24T00:45:24;16.80;99.90
75321;DHT22;68337;52.196;5.660;2023-06-24T00:47:51;16.70;99.90
75321;DHT22;68337;52.196;5.660;2023-06-24T00:50:17;16.70;99.90
75321;DHT22;68337;52.196;5.660;2023-06-24T00:52:43;16.70;99.90
75321;DHT22;68337;52.196;5.660;2023-06-24T00:55:11;16.60;99.90
75321;DHT22;68337;52.196;5.660;2023-06-24T00:57:43;16.50;99.90
75321;DHT22;68337;52.196;5.660;2023-06-24T01:00:10;16.50;99.90
75321;DHT22;68337;52.196;5.660;2023-06-24T01:02:40;16.50;99.90
75321;DHT22;68337;52.196;5.660;2023-06-24T01:05:08;16.40;99.90
75321;DHT22;68337;52.196;5.660;2023-06-24T01:07:35;16.40;99.90
75321;DHT22;68337;52.196;5.660;2023-06-24T01:10:06;16.30;99.90
75321;DHT22;68337;52.196;5.660;2023-06-24T01:12:37;16.30;99.90
75321;DHT22;68337;52.196;5.660;2023-06-24T01:15:05;16.20;99.90
75321;DHT22;68337;52.196;5.660;2023-06-24T01:17:57;16.20;99.90
75321;DHT22;68337;52.196;5.660;2023-06-24T01:26:32;16.10;99.90
75321;DHT22;68337;52.196;5.660;2023-06-24T01:34:34;16.00;99.90
75321;DHT22;68337;52.196;5.660;2023-06-24T01:37:21;16.00;99.90
75321;DHT22;68337;52.196;5.660;2023-06-24T01:42:45;15.90;99.90
75321;DHT22;68337;52.196;5.660;2023-06-24T01:45:32;15.80;99.90
75321;DHT22;68337;52.196;5.660;2023-06-24T01:48:14;15.80;99.90
75321;DHT22;68337;52.196;5.660;2023-06-24T01:50:47;15.80;99.90
75321;DHT22;68337;52.196;5.660;2023-06-24T01:53:14;15.60;99.90
75321;DHT22;68337;52.196;5.660;2023-06-24T01:55:42;15.60;99.90
75321;DHT22;68337;52.196;5.660;2023-06-24T01:58:10;15.50;99.90
75321;DHT22;68337;52.196;5.660;2023-06-24T02:00:37;15.50;99.90
75321;DHT22;68337;52.196;5.660;2023-06-24T02:03:05;15.40;99.90
75321;DHT22;68337;52.196;5.660;2023-06-24T02:05:32;15.40;99.90
75321;DHT22;68337;52.196;5.660;2023-06-24T02:08:00;15.30;99.90
75321;DHT22;68337;52.196;5.660;2023-06-24T02:10:27;15.30;99.90
75321;DHT22;68337;52.196;5.660;2023-06-24T02:12:56;15.30;99.90
75321;DHT22;68337;52.196;5.660;2023-06-24T02:15:22;15.30;99.90
75321;DHT22;68337;52.196;5.660;2023-06-24T02:17:51;15.20;99.90
75321;DHT22;68337;52.196;5.660;2023-06-24T02:20:18;15.20;99.90
75321;DHT22;68337;52.196;5.660;2023-06-24T02:22:45;15.20;99.90
75321;DHT22;68337;52.196;5.660;2023-06-24T02:25:11;15.20;99.90
75321;DHT22;68337;52.196;5.660;2023-06-24T02:27:38;15.10;99.90
75321;DHT22;68337;52.196;5.660;2023-06-24T02:30:05;15.10;99.90
75321;DHT22;68337;52.196;5.660;2023-06-24T02:32:33;15.00;99.90
75321;DHT22;68337;52.196;5.660;2023-06-24T02:35:01;15.00;99.90
75321;DHT22;68337;52.196;5.660;2023-06-24T02:37:27;14.90;99.90
75321;DHT22;68337;52.196;5.660;2023-06-24T02:39:52;15.00;99.90
75321;DHT22;68337;52.196;5.660;2023-06-24T02:42:18;14.90;99.90
75321;DHT22;68337;52.196;5.660;2023-06-24T02:44:44;14.90;99.90
75321;DHT22;68337;52.196;5.660;2023-06-24T02:47:12;14.90;99.90
75321;DHT22;68337;52.196;5.660;2023-06-24T02:49:40;14.90;99.90
75321;DHT22;68337;52.196;5.660;2023-06-24T02:52:07;15.00;99.90
75321;DHT22;68337;52.196;5.660;2023-06-24T02:54:33;14.90;99.90
75321;DHT22;68337;52.196;5.660;2023-06-24T02:56:59;15.00;99.90
75321;DHT22;68337;52.196;5.660;2023-06-24T02:59:25;14.80;99.90
75321;DHT22;68337;52.196;5.660;2023-06-24T03:01:52;14.70;99.90
75321;DHT22;68337;52.196;5.660;2023-06-24T03:04:19;14.70;99.90
75321;DHT22;68337;52.196;5.660;2023-06-24T03:06:45;14.60;99.90
75321;DHT22;68337;52.196;5.660;2023-06-24T03:09:11;14.60;99.90
75321;DHT22;68337;52.196;5.660;2023-06-24T03:11:44;14.60;99.90
75321;DHT22;68337;52.196;5.660;2023-06-24T03:14:10;14.60;99.90
75321;DHT22;68337;52.196;5.660;2023-06-24T03:16:37;14.50;99.90
75321;DHT22;68337;52.196;5.660;2023-06-24T03:19:05;14.50;99.90
75321;DHT22;68337;52.196;5.660;2023-06-24T03:21:31;14.50;99.90
75321;DHT22;68337;52.196;5.660;2023-06-24T03:23:57;14.50;99.90
75321;DHT22;68337;52.196;5.660;2023-06-24T03:26:32;14.50;99.90
75321;DHT22;68337;52.196;5.660;2023-06-24T03:28:58;14.40;99.90
75321;DHT22;68337;52.196;5.660;2023-06-24T03:31:24;14.40;99.90
75321;DHT22;68337;52.196;5.660;2023-06-24T03:33:50;14.40;99.90
75321;DHT22;68337;52.196;5.660;2023-06-24T03:36:15;14.40;99.90
75321;DHT22;68337;52.196;5.660;2023-06-24T03:38:41;14.40;99.90
75321;DHT22;68337;52.196;5.660;2023-06-24T03:41:07;14.40;99.90
75321;DHT22;68337;52.196;5.660;2023-06-24T03:43:33;14.50;99.90
75321;DHT22;68337;52.196;5.660;2023-06-24T03:45:58;14.40;99.90
75321;DHT22;68337;52.196;5.660;2023-06-24T03:48:25;14.40;99.90
75321;DHT22;68337;52.196;5.660;2023-06-24T03:50:51;14.30;99.90
75321;DHT22;68337;52.196;5.660;2023-06-24T03:53:17;14.30;99.90
75321;DHT22;68337;52.196;5.660;2023-06-24T03:55:43;14.40;99.90
75321;DHT22;68337;52.196;5.660;2023-06-24T03:58:08;14.40;99.90
75321;DHT22;68337;52.196;5.660;2023-06-24T04:00:34;14.40;99.90
75321;DHT22;68337;52.196;5.660;2023-06-24T04:03:01;14.40;99.90
75321;DHT22;68337;52.196;5.660;2023-06-24T04:05:27;14.30;99.90
75321;DHT22;68337;52.196;5.660;2023-06-24T04:07:53;14.40;99.90
75321;DHT22;68337;52.196;5.660;2023-06-24T04:10:19;14.40;99.90
75321;DHT22;68337;52.196;5.660;2023-06-24T04:12:45;14.40;99.90
75321;DHT22;68337;52.196;5.660;2023-06-24T04:15:11;14.40;99.90
75321;DHT22;68337;52.196;5.660;2023-06-24T04:17:37;14.40;99.90
75321;DHT22;68337;52.196;5.660;2023-06-24T04:20:04;14.40;99.90
75321;DHT22;68337;52.196;5.660;2023-06-24T04:22:33;14.50;99.90
75321;DHT22;68337;52.196;5.660;2023-06-24T04:24:59;14.60;99.90
75321;DHT22;68337;52.196;5.660;2023-06-24T04:27:24;14.60;99.90
75321;DHT22;68337;52.196;5.660;2023-06-24T04:29:50;14.60;99.90
75321;DHT22;68337;52.196;5.660;2023-06-24T04:32:16;14.70;99.90
75321;DHT22;68337;52.196;5.660;2023-06-24T04:34:42;14.70;99.90
75321;DHT22;68337;52.196;5.660;2023-06-24T04:37:08;14.70;99.90
75321;DHT22;68337;52.196;5.660;2023-06-24T04:39:33;14.80;99.90
75321;DHT22;68337;52.196;5.660;2023-06-24T04:41:59;14.90;99.90
75321;DHT22;68337;52.196;5.660;2023-06-24T04:44:25;14.90;99.90
75321;DHT22;68337;52.196;5.660;2023-06-24T04:46:51;15.00;99.90
75321;DHT22;68337;52.196;5.660;2023-06-24T04:49:18;15.10;99.90
75321;DHT22;68337;52.196;5.660;2023-06-24T04:51:44;15.20;99.90
75321;DHT22;68337;52.196;5.660;2023-06-24T04:54:09;15.30;99.90
75321;DHT22;68337;52.196;5.660;2023-06-24T04:56:38;15.50;99.90
75321;DHT22;68337;52.196;5.660;2023-06-24T04:59:03;15.60;99.90
75321;DHT22;68337;52.196;5.660;2023-06-24T05:01:29;15.80;99.90
75321;DHT22;68337;52.196;5.660;2023-06-24T05:03:55;16.00;99.90
75321;DHT22;68337;52.196;5.660;2023-06-24T05:06:21;16.20;99.90
75321;DHT22;68337;52.196;5.660;2023-06-24T05:08:46;16.50;99.90
75321;DHT22;68337;52.196;5.660;2023-06-24T05:11:12;16.70;99.90
75321;DHT22;68337;52.196;5.660;2023-06-24T05:13:38;17.00;99.90
75321;DHT22;68337;52.196;5.660;2023-06-24T05:16:04;17.30;99.90
75321;DHT22;68337;52.196;5.660;2023-06-24T05:18:29;17.50;99.90
75321;DHT22;68337;52.196;5.660;2023-06-24T05:20:55;17.70;99.90
75321;DHT22;68337;52.196;5.660;2023-06-24T05:23:21;17.70;99.90
75321;DHT22;68337;52.196;5.660;2023-06-24T05:25:46;18.10;99.90
75321;DHT22;68337;52.196;5.660;2023-06-24T05:28:12;18.20;99.90
75321;DHT22;68337;52.196;5.660;2023-06-24T05:30:38;18.40;99.90
75321;DHT22;68337;52.196;5.660;2023-06-24T05:33:04;18.60;99.90
75321;DHT22;68337;52.196;5.660;2023-06-24T05:35:29;18.70;99.90
75321;DHT22;68337;52.196;5.660;2023-06-24T05:37:58;18.90;99.90
75321;DHT22;68337;52.196;5.660;2023-06-24T05:40:24;19.00;99.90
75321;DHT22;68337;52.196;5.660;2023-06-24T05:42:50;19.20;99.90
75321;DHT22;68337;52.196;5.660;2023-06-24T05:45:17;19.40;99.90
75321;DHT22;68337;52.196;5.660;2023-06-24T05:47:43;19.60;99.90
75321;DHT22;68337;52.196;5.660;2023-06-24T05:50:09;19.80;99.90
75321;DHT22;68337;52.196;5.660;2023-06-24T05:52:35;20.00;99.90
75321;DHT22;68337;52.196;5.660;2023-06-24T05:55:01;20.10;99.90
75321;DHT22;68337;52.196;5.660;2023-06-24T05:57:27;20.20;99.90
75321;DHT22;68337;52.196;5.660;2023-06-24T05:59:53;20.40;99.90
75321;DHT22;68337;52.196;5.660;2023-06-24T06:02:18;20.60;99.90
75321;DHT22;68337;52.196;5.660;2023-06-24T06:04:44;20.80;99.90
75321;DHT22;68337;52.196;5.660;2023-06-24T06:07:10;20.90;99.90
75321;DHT22;68337;52.196;5.660;2023-06-24T06:09:35;21.00;99.90
75321;DHT22;68337;52.196;5.660;2023-06-24T06:12:01;21.00;99.90
75321;DHT22;68337;52.196;5.660;2023-06-24T06:14:27;21.10;99.90
75321;DHT22;68337;52.196;5.660;2023-06-24T06:16:52;21.40;99.90
75321;DHT22;68337;52.196;5.660;2023-06-24T06:19:18;21.60;99.90
75321;DHT22;68337;52.196;5.660;2023-06-24T06:21:44;21.70;99.90
75321;DHT22;68337;52.196;5.660;2023-06-24T06:24:10;21.70;99.90
75321;DHT22;68337;52.196;5.660;2023-06-24T06:26:42;21.70;99.90
75321;DHT22;68337;52.196;5.660;2023-06-24T06:29:09;21.50;99.90
75321;DHT22;68337;52.196;5.660;2023-06-24T06:31:34;21.50;99.90
75321;DHT22;68337;52.196;5.660;2023-06-24T06:34:00;21.60;99.90
75321;DHT22;68337;52.196;5.660;2023-06-24T06:36:27;21.70;99.90
75321;DHT22;68337;52.196;5.660;2023-06-24T06:38:53;21.80;99.90
75321;DHT22;68337;52.196;5.660;2023-06-24T06:41:19;21.80;99.90
75321;DHT22;68337;52.196;5.660;2023-06-24T06:43:51;21.80;99.90
75321;DHT22;68337;52.196;5.660;2023-06-24T06:46:16;21.90;99.90
75321;DHT22;68337;52.196;5.660;2023-06-24T06:48:42;22.00;99.90
75321;DHT22;68337;52.196;5.660;2023-06-24T06:51:08;22.10;99.90
75321;DHT22;68337;52.196;5.660;2023-06-24T06:53:34;22.20;99.90
75321;DHT22;68337;52.196;5.660;2023-06-24T06:55:59;22.10;99.90
75321;DHT22;68337;52.196;5.660;2023-06-24T06:58:25;22.30;99.90
75321;DHT22;68337;52.196;5.660;2023-06-24T07:00:51;22.60;99.90
75321;DHT22;68337;52.196;5.660;2023-06-24T07:03:18;22.90;99.90
75321;DHT22;68337;52.196;5.660;2023-06-24T07:05:43;22.90;99.90
75321;DHT22;68337;52.196;5.660;2023-06-24T07:08:09;23.10;99.90
75321;DHT22;68337;52.196;5.660;2023-06-24T07:10:35;23.30;99.90
75321;DHT22;68337;52.196;5.660;2023-06-24T07:13:01;23.40;99.90
75321;DHT22;68337;52.196;5.660;2023-06-24T07:15:30;23.30;99.90
75321;DHT22;68337;52.196;5.660;2023-06-24T07:17:56;23.30;99.90
75321;DHT22;68337;52.196;5.660;2023-06-24T07:20:22;23.30;99.90
75321;DHT22;68337;52.196;5.660;2023-06-24T07:22:48;23.50;99.90
75321;DHT22;68337;52.196;5.660;2023-06-24T07:25:14;23.50;99.90
75321;DHT22;68337;52.196;5.660;2023-06-24T07:27:39;23.40;99.90
75321;DHT22;68337;52.196;5.660;2023-06-24T07:30:06;23.50;99.90
75321;DHT22;68337;52.196;5.660;2023-06-24T07:32:32;23.70;99.90
75321;DHT22;68337;52.196;5.660;2023-06-24T07:34:57;23.60;99.90
75321;DHT22;68337;52.196;5.660;2023-06-24T07:37:23;23.90;99.90
75321;DHT22;68337;52.196;5.660;2023-06-24T07:39:49;23.90;99.90
75321;DHT22;68337;52.196;5.660;2023-06-24T07:42:15;24.10;99.90
75321;DHT22;68337;52.196;5.660;2023-06-24T07:44:47;24.40;99.90
75321;DHT22;68337;52.196;5.660;2023-06-24T07:47:13;24.60;99.90
75321;DHT22;68337;52.196;5.660;2023-06-24T07:49:42;24.90;99.90
75321;DHT22;68337;52.196;5.660;2023-06-24T07:52:08;25.00;99.90
75321;DHT22;68337;52.196;5.660;2023-06-24T07:54:34;25.00;99.90
75321;DHT22;68337;52.196;5.660;2023-06-24T07:57:01;25.10;99.90
75321;DHT22;68337;52.196;5.660;2023-06-24T07:59:27;25.10;99.90
75321;DHT22;68337;52.196;5.660;2023-06-24T08:01:52;25.20;99.90
75321;DHT22;68337;52.196;5.660;2023-06-24T08:04:18;25.30;99.90
75321;DHT22;68337;52.196;5.660;2023-06-24T08:06:46;25.40;99.90
75321;DHT22;68337;52.196;5.660;2023-06-24T08:09:12;25.60;99.90
75321;DHT22;68337;52.196;5.660;2023-06-24T08:11:38;25.60;99.90
75321;DHT22;68337;52.196;5.660;2023-06-24T08:14:04;25.60;99.90
75321;DHT22;68337;52.196;5.660;2023-06-24T08:16:30;25.70;99.90
75321;DHT22;68337;52.196;5.660;2023-06-24T08:18:55;26.00;99.90
75321;DHT22;68337;52.196;5.660;2023-06-24T08:21:21;26.10;99.90
75321;DHT22;68337;52.196;5.660;2023-06-24T08:23:47;26.00;99.90
75321;DHT22;68337;52.196;5.660;2023-06-24T08:26:15;26.20;99.90
75321;DHT22;68337;52.196;5.660;2023-06-24T08:28:41;26.30;99.90
75321;DHT22;68337;52.196;5.660;2023-06-24T08:31:06;26.40;99.90
75321;DHT22;68337;52.196;5.660;2023-06-24T08:33:32;26.40;99.90
75321;DHT22;68337;52.196;5.660;2023-06-24T08:35:58;26.50;99.90
75321;DHT22;68337;52.196;5.660;2023-06-24T08:38:24;26.70;99.90
75321;DHT22;68337;52.196;5.660;2023-06-24T08:40:50;27.10;99.90
75321;DHT22;68337;52.196;5.660;2023-06-24T08:43:18;27.10;99.90
75321;DHT22;68337;52.196;5.660;2023-06-24T08:45:44;27.00;99.90
75321;DHT22;68337;52.196;5.660;2023-06-24T08:48:10;27.00;99.90
75321;DHT22;68337;52.196;5.660;2023-06-24T08:50:43;26.90;99.90
75321;DHT22;68337;52.196;5.660;2023-06-24T08:53:09;27.10;99.90
75321;DHT22;68337;52.196;5.660;2023-06-24T08:55:40;27.40;99.90
75321;DHT22;68337;52.196;5.660;2023-06-24T08:58:07;27.30;99.90
75321;DHT22;68337;52.196;5.660;2023-06-24T09:00:34;27.30;99.90
75321;DHT22;68337;52.196;5.660;2023-06-24T09:03:00;27.50;99.90
75321;DHT22;68337;52.196;5.660;2023-06-24T09:05:26;27.50;99.90
75321;DHT22;68337;52.196;5.660;2023-06-24T09:07:52;27.70;99.80
75321;DHT22;68337;52.196;5.660;2023-06-24T09:10:31;27.80;99.00
75321;DHT22;68337;52.196;5.660;2023-06-24T09:13:01;27.90;99.70
75321;DHT22;68337;52.196;5.660;2023-06-24T09:15:34;28.20;98.70
75321;DHT22;68337;52.196;5.660;2023-06-24T09:18:00;28.60;98.50
75321;DHT22;68337;52.196;5.660;2023-06-24T09:20:27;28.90;97.60
75321;DHT22;68337;52.196;5.660;2023-06-24T09:22:59;29.10;97.10
75321;DHT22;68337;52.196;5.660;2023-06-24T09:25:25;29.40;96.10
75321;DHT22;68337;52.196;5.660;2023-06-24T09:27:51;29.60;95.00
75321;DHT22;68337;52.196;5.660;2023-06-24T09:30:24;29.80;95.00
75321;DHT22;68337;52.196;5.660;2023-06-24T09:32:51;29.80;93.40
75321;DHT22;68337;52.196;5.660;2023-06-24T09:35:25;29.80;93.00
75321;DHT22;68337;52.196;5.660;2023-06-24T09:37:55;30.00;91.60
75321;DHT22;68337;52.196;5.660;2023-06-24T09:40:22;30.30;91.00
75321;DHT22;68337;52.196;5.660;2023-06-24T09:42:54;30.10;91.10
75321;DHT22;68337;52.196;5.660;2023-06-24T09:45:25;30.50;91.50
75321;DHT22;68337;52.196;5.660;2023-06-24T09:47:53;30.70;90.20
75321;DHT22;68337;52.196;5.660;2023-06-24T09:50:19;30.60;90.00
75321;DHT22;68337;52.196;5.660;2023-06-24T09:52:46;31.10;90.00
75321;DHT22;68337;52.196;5.660;2023-06-24T09:55:13;31.30;87.90
75321;DHT22;68337;52.196;5.660;2023-06-24T09:57:43;31.50;87.10
75321;DHT22;68337;52.196;5.660;2023-06-24T10:00:10;31.80;85.10
75321;DHT22;68337;52.196;5.660;2023-06-24T10:02:36;31.80;86.30
75321;DHT22;68337;52.196;5.660;2023-06-24T10:05:03;31.80;83.00
75321;DHT22;68337;52.196;5.660;2023-06-24T10:07:32;31.60;84.00
75321;DHT22;68337;52.196;5.660;2023-06-24T10:09:58;31.70;85.70
75321;DHT22;68337;52.196;5.660;2023-06-24T10:12:24;32.10;81.40
75321;DHT22;68337;52.196;5.660;2023-06-24T10:14:52;32.00;81.60
75321;DHT22;68337;52.196;5.660;2023-06-24T10:17:18;31.90;82.20
75321;DHT22;68337;52.196;5.660;2023-06-24T10:19:44;32.10;81.80
75321;DHT22;68337;52.196;5.660;2023-06-24T10:22:11;32.20;79.70
75321;DHT22;68337;52.196;5.660;2023-06-24T10:24:41;32.10;80.40
75321;DHT22;68337;52.196;5.660;2023-06-24T10:27:08;32.60;80.10
75321;DHT22;68337;52.196;5.660;2023-06-24T10:29:38;32.30;79.30
75321;DHT22;68337;52.196;5.660;2023-06-24T10:32:12;32.60;78.70
75321;DHT22;68337;52.196;5.660;2023-06-24T10:34:41;32.60;77.90
75321;DHT22;68337;52.196;5.660;2023-06-24T10:37:08;32.80;77.50
75321;DHT22;68337;52.196;5.660;2023-06-24T10:39:47;32.80;77.00
75321;DHT22;68337;52.196;5.660;2023-06-24T10:42:28;32.70;78.10
75321;DHT22;68337;52.196;5.660;2023-06-24T10:44:56;32.20;77.20
75321;DHT22;68337;52.196;5.660;2023-06-24T10:47:23;32.20;76.20
75321;DHT22;68337;52.196;5.660;2023-06-24T10:49:50;32.00;77.10
75321;DHT22;68337;52.196;5.660;2023-06-24T10:52:19;32.30;77.80
75321;DHT22;68337;52.196;5.660;2023-06-24T10:54:46;33.10;76.10
75321;DHT22;68337;52.196;5.660;2023-06-24T10:57:12;33.10;75.20
75321;DHT22;68337;52.196;5.660;2023-06-24T10:59:47;32.90;75.20
75321;DHT22;68337;52.196;5.660;2023-06-24T11:02:19;33.50;74.60
75321;DHT22;68337;52.196;5.660;2023-06-24T11:04:49;33.50;74.50
75321;DHT22;68337;52.196;5.660;2023-06-24T11:07:17;33.70;72.60
75321;DHT22;68337;52.196;5.660;2023-06-24T11:09:51;33.50;71.10
75321;DHT22;68337;52.196;5.660;2023-06-24T11:12:18;33.30;72.60
75321;DHT22;68337;52.196;5.660;2023-06-24T11:14:44;33.50;73.00
75321;DHT22;68337;52.196;5.660;2023-06-24T11:17:09;33.80;70.30
75321;DHT22;68337;52.196;5.660;2023-06-24T11:19:35;33.40;71.90
75321;DHT22;68337;52.196;5.660;2023-06-24T11:22:05;33.50;71.80
75321;DHT22;68337;52.196;5.660;2023-06-24T11:24:32;33.30;70.70
75321;DHT22;68337;52.196;5.660;2023-06-24T11:26:58;33.40;72.60
75321;DHT22;68337;52.196;5.660;2023-06-24T11:29:24;34.20;70.30
75321;DHT22;68337;52.196;5.660;2023-06-24T11:31:50;34.10;69.90
75321;DHT22;68337;52.196;5.660;2023-06-24T11:34:16;34.20;69.70
75321;DHT22;68337;52.196;5.660;2023-06-24T11:36:43;34.60;68.60
75321;DHT22;68337;52.196;5.660;2023-06-24T11:39:08;34.20;69.00
75321;DHT22;68337;52.196;5.660;2023-06-24T11:41:45;34.20;67.30
75321;DHT22;68337;52.196;5.660;2023-06-24T11:44:11;33.30;68.60
75321;DHT22;68337;52.196;5.660;2023-06-24T11:46:37;32.40;70.10
75321;DHT22;68337;52.196;5.660;2023-06-24T11:49:07;32.00;72.90
75321;DHT22;68337;52.196;5.660;2023-06-24T11:51:37;32.90;69.70
75321;DHT22;68337;52.196;5.660;2023-06-24T11:54:10;33.80;70.20
75321;DHT22;68337;52.196;5.660;2023-06-24T11:56:40;34.00;69.20
75321;DHT22;68337;52.196;5.660;2023-06-24T11:59:07;34.00;68.30
75321;DHT22;68337;52.196;5.660;2023-06-24T12:01:33;33.70;67.10
75321;DHT22;68337;52.196;5.660;2023-06-24T12:04:19;33.10;69.10
75321;DHT22;68337;52.196;5.660;2023-06-24T12:06:45;32.90;70.00
75321;DHT22;68337;52.196;5.660;2023-06-24T12:09:11;32.80;69.60
75321;DHT22;68337;52.196;5.660;2023-06-24T12:11:38;32.40;71.30
75321;DHT22;68337;52.196;5.660;2023-06-24T12:14:05;32.10;72.20
75321;DHT22;68337;52.196;5.660;2023-06-24T12:16:31;32.10;71.60
75321;DHT22;68337;52.196;5.660;2023-06-24T12:18:57;32.40;71.40
75321;DHT22;68337;52.196;5.660;2023-06-24T12:21:23;32.70;71.70
75321;DHT22;68337;52.196;5.660;2023-06-24T12:23:48;33.50;70.90
75321;DHT22;68337;52.196;5.660;2023-06-24T12:26:14;33.50;69.90
75321;DHT22;68337;52.196;5.660;2023-06-24T12:28:40;33.30;69.20
75321;DHT22;68337;52.196;5.660;2023-06-24T12:31:06;33.20;70.10
75321;DHT22;68337;52.196;5.660;2023-06-24T12:33:32;33.30;69.40
75321;DHT22;68337;52.196;5.660;2023-06-24T12:35:58;33.70;68.10
75321;DHT22;68337;52.196;5.660;2023-06-24T12:38:24;34.10;67.30
75321;DHT22;68337;52.196;5.660;2023-06-24T12:40:50;33.80;68.80
75321;DHT22;68337;52.196;5.660;2023-06-24T12:43:16;33.40;67.10
75321;DHT22;68337;52.196;5.660;2023-06-24T12:45:42;32.70;70.60
75321;DHT22;68337;52.196;5.660;2023-06-24T12:48:12;33.20;68.90
75321;DHT22;68337;52.196;5.660;2023-06-24T12:50:38;33.40;70.00
75321;DHT22;68337;52.196;5.660;2023-06-24T12:53:04;33.90;68.80
75321;DHT22;68337;52.196;5.660;2023-06-24T12:55:30;34.20;66.70
75321;DHT22;68337;52.196;5.660;2023-06-24T12:57:56;34.50;67.30
75321;DHT22;68337;52.196;5.660;2023-06-24T13:00:24;35.10;66.60
75321;DHT22;68337;52.196;5.660;2023-06-24T13:02:50;35.10;66.70
75321;DHT22;68337;52.196;5.660;2023-06-24T13:05:17;35.30;63.90
75321;DHT22;68337;52.196;5.660;2023-06-24T13:07:43;33.70;64.80
75321;DHT22;68337;52.196;5.660;2023-06-24T13:10:10;33.50;67.50
75321;DHT22;68337;52.196;5.660;2023-06-24T13:12:36;33.70;67.70
75321;DHT22;68337;52.196;5.660;2023-06-24T13:15:03;34.50;66.20
75321;DHT22;68337;52.196;5.660;2023-06-24T13:17:34;35.00;64.20
75321;DHT22;68337;52.196;5.660;2023-06-24T13:20:00;35.00;63.30
75321;DHT22;68337;52.196;5.660;2023-06-24T13:22:28;34.90;65.00
75321;DHT22;68337;52.196;5.660;2023-06-24T13:24:54;34.70;64.60
75321;DHT22;68337;52.196;5.660;2023-06-24T13:27:19;34.60;65.20
75321;DHT22;68337;52.196;5.660;2023-06-24T13:29:45;34.50;65.70
75321;DHT22;68337;52.196;5.660;2023-06-24T13:32:11;34.90;65.10
75321;DHT22;68337;52.196;5.660;2023-06-24T13:34:37;34.70;64.20
75321;DHT22;68337;52.196;5.660;2023-06-24T13:37:02;34.10;65.90
75321;DHT22;68337;52.196;5.660;2023-06-24T13:39:28;33.80;65.30
75321;DHT22;68337;52.196;5.660;2023-06-24T13:41:58;33.50;67.30
75321;DHT22;68337;52.196;5.660;2023-06-24T13:44:24;33.40;66.90
75321;DHT22;68337;52.196;5.660;2023-06-24T13:46:50;33.40;67.00
75321;DHT22;68337;52.196;5.660;2023-06-24T13:49:20;32.90;67.00
75321;DHT22;68337;52.196;5.660;2023-06-24T13:51:46;32.90;67.50
75321;DHT22;68337;52.196;5.660;2023-06-24T13:54:12;32.80;67.20
75321;DHT22;68337;52.196;5.660;2023-06-24T13:56:38;33.00;67.90
75321;DHT22;68337;52.196;5.660;2023-06-24T13:59:14;32.70;67.60
75321;DHT22;68337;52.196;5.660;2023-06-24T14:01:46;32.60;70.20
75321;DHT22;68337;52.196;5.660;2023-06-24T14:04:12;32.60;69.90
75321;DHT22;68337;52.196;5.660;2023-06-24T14:06:38;32.40;70.10
75321;DHT22;68337;52.196;5.660;2023-06-24T14:09:05;32.50;68.90
75321;DHT22;68337;52.196;5.660;2023-06-24T14:11:31;32.60;70.00
75321;DHT22;68337;52.196;5.660;2023-06-24T14:13:56;32.80;69.20
75321;DHT22;68337;52.196;5.660;2023-06-24T14:16:22;32.50;69.50
75321;DHT22;68337;52.196;5.660;2023-06-24T14:18:58;32.10;70.30
75321;DHT22;68337;52.196;5.660;2023-06-24T14:21:23;31.50;70.90
75321;DHT22;68337;52.196;5.660;2023-06-24T14:23:50;31.60;71.60
75321;DHT22;68337;52.196;5.660;2023-06-24T14:26:15;31.30;72.40
75321;DHT22;68337;52.196;5.660;2023-06-24T14:28:41;31.40;72.70
75321;DHT22;68337;52.196;5.660;2023-06-24T14:31:07;31.60;72.80
75321;DHT22;68337;52.196;5.660;2023-06-24T14:33:32;31.60;72.10
75321;DHT22;68337;52.196;5.660;2023-06-24T14:35:58;31.20;72.80
75321;DHT22;68337;52.196;5.660;2023-06-24T14:38:24;30.80;73.40
75321;DHT22;68337;52.196;5.660;2023-06-24T14:40:50;31.10;73.50
75321;DHT22;68337;52.196;5.660;2023-06-24T14:43:15;31.20;72.80
75321;DHT22;68337;52.196;5.660;2023-06-24T14:45:41;31.40;72.20
75321;DHT22;68337;52.196;5.660;2023-06-24T14:48:07;31.50;71.90
75321;DHT22;68337;52.196;5.660;2023-06-24T14:50:33;31.40;72.90
75321;DHT22;68337;52.196;5.660;2023-06-24T14:52:58;31.50;72.70
75321;DHT22;68337;52.196;5.660;2023-06-24T14:55:24;31.60;72.50
75321;DHT22;68337;52.196;5.660;2023-06-24T14:57:50;31.70;72.10
75321;DHT22;68337;52.196;5.660;2023-06-24T15:00:16;31.50;72.10
75321;DHT22;68337;52.196;5.660;2023-06-24T15:02:41;31.60;71.90
75321;DHT22;68337;52.196;5.660;2023-06-24T15:05:07;31.40;71.50
75321;DHT22;68337;52.196;5.660;2023-06-24T15:07:34;31.30;72.10
75321;DHT22;68337;52.196;5.660;2023-06-24T15:10:00;31.40;72.60
75321;DHT22;68337;52.196;5.660;2023-06-24T15:12:26;31.00;72.60
75321;DHT22;68337;52.196;5.660;2023-06-24T15:14:51;31.10;73.10
75321;DHT22;68337;52.196;5.660;2023-06-24T15:17:17;30.90;72.90
75321;DHT22;68337;52.196;5.660;2023-06-24T15:19:43;31.00;73.50
75321;DHT22;68337;52.196;5.660;2023-06-24T15:22:09;31.00;73.80
75321;DHT22;68337;52.196;5.660;2023-06-24T15:24:35;31.00;73.30
75321;DHT22;68337;52.196;5.660;2023-06-24T15:27:00;31.10;73.60
75321;DHT22;68337;52.196;5.660;2023-06-24T15:29:27;31.40;73.20
75321;DHT22;68337;52.196;5.660;2023-06-24T15:31:54;31.20;71.60
75321;DHT22;68337;52.196;5.660;2023-06-24T15:34:19;30.90;71.80
75321;DHT22;68337;52.196;5.660;2023-06-24T15:36:45;30.80;72.40
75321;DHT22;68337;52.196;5.660;2023-06-24T15:39:11;30.70;72.60
75321;DHT22;68337;52.196;5.660;2023-06-24T15:41:37;30.70;73.50
75321;DHT22;68337;52.196;5.660;2023-06-24T15:44:06;30.80;73.50